sensor_id;sensor_type;location;lat;lon;timestamp;P1;durP1;ratioP1;P2;durP2;ratioP2
11346;SDS011;5728;42.722;23.258;2023-04-24T00:01:56;9.90;;;6.10;;
11346;SDS011;5728;42.722;23.258;2023-04-24T00:04:23;10.93;;;6.13;;
11346;SDS011;5728;42.722;23.258;2023-04-24T00:06:51;7.30;;;5.90;;
11346;SDS011;5728;42.722;23.258;2023-04-24T00:09:19;7.77;;;5.47;;
11346;SDS011;5728;42.722;23.258;2023-04-24T00:11:47;10.87;;;5.57;;
11346;SDS011;5728;42.722;23.258;2023-04-24T00:14:14;10.97;;;6.47;;
11346;SDS011;5728;42.722;23.258;2023-04-24T00:16:41;8.80;;;6.03;;
11346;SDS011;5728;42.722;23.258;2023-04-24T00:19:07;8.63;;;5.87;;
11346;SDS011;5728;42.722;23.258;2023-04-24T00:21:34;6.77;;;5.43;;
11346;SDS011;5728;42.722;23.258;2023-04-24T00:24:01;7.63;;;5.20;;
11346;SDS011;5728;42.722;23.258;2023-04-24T00:26:28;9.13;;;5.00;;
11346;SDS011;5728;42.722;23.258;2023-04-24T00:28:56;9.10;;;5.27;;
11346;SDS011;5728;42.722;23.258;2023-04-24T00:31:22;7.60;;;4.63;;
11346;SDS011;5728;42.722;23.258;2023-04-24T00:33:49;6.23;;;5.33;;
11346;SDS011;5728;42.722;23.258;2023-04-24T00:36:16;9.23;;;5.13;;
11346;SDS011;5728;42.722;23.258;2023-04-24T00:38:44;9.30;;;5.37;;
11346;SDS011;5728;42.722;23.258;2023-04-24T00:41:11;11.63;;;5.77;;
11346;SDS011;5728;42.722;23.258;2023-04-24T00:43:38;14.60;;;5.40;;
11346;SDS011;5728;42.722;23.258;2023-04-24T00:46:07;8.70;;;7.00;;
11346;SDS011;5728;42.722;23.258;2023-04-24T00:48:34;14.50;;;6.90;;
11346;SDS011;5728;42.722;23.258;2023-04-24T00:51:00;9.13;;;7.00;;
11346;SDS011;5728;42.722;23.258;2023-04-24T00:53:27;10.07;;;7.80;;
11346;SDS011;5728;42.722;23.258;2023-04-24T00:55:54;11.30;;;7.70;;
11346;SDS011;5728;42.722;23.258;2023-04-24T00:58:22;11.33;;;7.13;;
11346;SDS011;5728;42.722;23.258;2023-04-24T01:00:49;9.63;;;7.40;;
11346;SDS011;5728;42.722;23.258;2023-04-24T01:03:19;10.27;;;7.47;;
11346;SDS011;5728;42.722;23.258;2023-04-24T01:05:47;17.20;;;8.20;;
11346;SDS011;5728;42.722;23.258;2023-04-24T01:08:15;10.67;;;7.97;;
11346;SDS011;5728;42.722;23.258;2023-04-24T01:10:43;9.57;;;7.67;;
11346;SDS011;5728;42.722;23.258;2023-04-24T01:13:11;19.67;;;8.23;;
11346;SDS011;5728;42.722;23.258;2023-04-24T01:15:38;7.50;;;6.70;;
11346;SDS011;5728;42.722;23.258;2023-04-24T01:18:04;9.10;;;7.77;;
11346;SDS011;5728;42.722;23.258;2023-04-24T01:20:33;15.57;;;8.33;;
11346;SDS011;5728;42.722;23.258;2023-04-24T01:23:03;13.03;;;7.70;;
11346;SDS011;5728;42.722;23.258;2023-04-24T01:25:30;13.57;;;9.13;;
11346;SDS011;5728;42.722;23.258;2023-04-24T01:27:57;15.70;;;8.00;;
11346;SDS011;5728;42.722;23.258;2023-04-24T01:30:24;14.97;;;7.77;;
11346;SDS011;5728;42.722;23.258;2023-04-24T01:32:53;9.97;;;7.50;;
11346;SDS011;5728;42.722;23.258;2023-04-24T01:35:21;13.43;;;7.27;;
11346;SDS011;5728;42.722;23.258;2023-04-24T01:37:48;13.00;;;7.77;;
11346;SDS011;5728;42.722;23.258;2023-04-24T01:40:16;11.17;;;8.50;;
11346;SDS011;5728;42.722;23.258;2023-04-24T01:42:43;10.83;;;7.53;;
11346;SDS011;5728;42.722;23.258;2023-04-24T01:45:11;12.07;;;7.73;;
11346;SDS011;5728;42.722;23.258;2023-04-24T01:47:39;11.23;;;8.53;;
11346;SDS011;5728;42.722;23.258;2023-04-24T01:50:06;9.87;;;7.20;;
11346;SDS011;5728;42.722;23.258;2023-04-24T01:52:33;8.87;;;6.40;;
11346;SDS011;5728;42.722;23.258;2023-04-24T01:55:01;11.63;;;6.47;;
11346;SDS011;5728;42.722;23.258;2023-04-24T01:57:30;8.83;;;6.87;;
11346;SDS011;5728;42.722;23.258;2023-04-24T01:59:57;14.67;;;6.70;;
11346;SDS011;5728;42.722;23.258;2023-04-24T02:02:24;9.67;;;6.67;;
11346;SDS011;5728;42.722;23.258;2023-04-24T02:04:52;8.77;;;6.17;;
11346;SDS011;5728;42.722;23.258;2023-04-24T02:07:19;9.67;;;6.80;;
11346;SDS011;5728;42.722;23.258;2023-04-24T02:09:45;11.93;;;5.90;;
11346;SDS011;5728;42.722;23.258;2023-04-24T02:12:12;7.07;;;6.37;;
11346;SDS011;5728;42.722;23.258;2023-04-24T02:14:40;9.23;;;6.77;;
11346;SDS011;5728;42.722;23.258;2023-04-24T02:17:08;14.40;;;7.57;;
11346;SDS011;5728;42.722;23.258;2023-04-24T02:19:38;11.17;;;7.07;;
11346;SDS011;5728;42.722;23.258;2023-04-24T02:22:05;12.83;;;7.40;;
11346;SDS011;5728;42.722;23.258;2023-04-24T02:24:32;8.10;;;6.80;;
11346;SDS011;5728;42.722;23.258;2023-04-24T02:26:58;19.00;;;7.97;;
11346;SDS011;5728;42.722;23.258;2023-04-24T02:29:27;8.27;;;6.57;;
11346;SDS011;5728;42.722;23.258;2023-04-24T02:31:55;11.60;;;8.40;;
11346;SDS011;5728;42.722;23.258;2023-04-24T02:34:21;10.30;;;7.63;;
11346;SDS011;5728;42.722;23.258;2023-04-24T02:36:48;9.60;;;7.33;;
11346;SDS011;5728;42.722;23.258;2023-04-24T02:39:15;9.03;;;6.87;;
11346;SDS011;5728;42.722;23.258;2023-04-24T02:41:42;8.63;;;6.60;;
11346;SDS011;5728;42.722;23.258;2023-04-24T02:44:09;11.60;;;7.37;;
11346;SDS011;5728;42.722;23.258;2023-04-24T02:46:35;12.13;;;7.33;;
11346;SDS011;5728;42.722;23.258;2023-04-24T02:49:04;15.33;;;6.97;;
11346;SDS011;5728;42.722;23.258;2023-04-24T02:51:30;10.60;;;7.67;;
11346;SDS011;5728;42.722;23.258;2023-04-24T02:53:57;10.30;;;6.70;;
11346;SDS011;5728;42.722;23.258;2023-04-24T02:56:24;13.13;;;7.80;;
11346;SDS011;5728;42.722;23.258;2023-04-24T02:58:50;7.53;;;6.17;;
11346;SDS011;5728;42.722;23.258;2023-04-24T03:01:17;8.40;;;6.83;;
11346;SDS011;5728;42.722;23.258;2023-04-24T03:03:44;9.27;;;6.13;;
11346;SDS011;5728;42.722;23.258;2023-04-24T03:06:12;10.50;;;6.80;;
11346;SDS011;5728;42.722;23.258;2023-04-24T03:08:39;8.97;;;6.60;;
11346;SDS011;5728;42.722;23.258;2023-04-24T03:11:06;10.27;;;6.63;;
11346;SDS011;5728;42.722;23.258;2023-04-24T03:13:32;8.87;;;6.17;;
11346;SDS011;5728;42.722;23.258;2023-04-24T03:15:59;9.33;;;6.13;;
11346;SDS011;5728;42.722;23.258;2023-04-24T03:18:26;11.03;;;7.30;;
11346;SDS011;5728;42.722;23.258;2023-04-24T03:20:53;9.03;;;6.47;;
11346;SDS011;5728;42.722;23.258;2023-04-24T03:23:21;16.47;;;6.90;;
11346;SDS011;5728;42.722;23.258;2023-04-24T03:25:48;19.20;;;8.57;;
11346;SDS011;5728;42.722;23.258;2023-04-24T03:28:15;10.07;;;7.70;;
11346;SDS011;5728;42.722;23.258;2023-04-24T03:30:42;10.20;;;7.37;;
11346;SDS011;5728;42.722;23.258;2023-04-24T03:33:08;11.27;;;7.03;;
11346;SDS011;5728;42.722;23.258;2023-04-24T03:35:35;11.27;;;7.20;;
11346;SDS011;5728;42.722;23.258;2023-04-24T03:38:02;9.83;;;7.13;;
11346;SDS011;5728;42.722;23.258;2023-04-24T03:40:31;9.40;;;6.90;;
11346;SDS011;5728;42.722;23.258;2023-04-24T03:42:58;9.07;;;7.07;;
11346;SDS011;5728;42.722;23.258;2023-04-24T03:45:25;11.83;;;7.13;;
11346;SDS011;5728;42.722;23.258;2023-04-24T03:47:52;21.57;;;8.03;;
11346;SDS011;5728;42.722;23.258;2023-04-24T03:50:18;13.47;;;7.33;;
11346;SDS011;5728;42.722;23.258;2023-04-24T03:52:45;12.07;;;7.40;;
11346;SDS011;5728;42.722;23.258;2023-04-24T03:55:12;9.80;;;7.10;;
11346;SDS011;5728;42.722;23.258;2023-04-24T03:57:41;14.30;;;7.83;;
11346;SDS011;5728;42.722;23.258;2023-04-24T04:00:08;18.37;;;9.13;;
11346;SDS011;5728;42.722;23.258;2023-04-24T04:02:36;15.30;;;8.07;;
11346;SDS011;5728;42.722;23.258;2023-04-24T04:05:03;15.67;;;8.30;;
11346;SDS011;5728;42.722;23.258;2023-04-24T04:07:30;20.70;;;8.60;;
11346;SDS011;5728;42.722;23.258;2023-04-24T04:09:56;19.77;;;8.23;;
11346;SDS011;5728;42.722;23.258;2023-04-24T04:12:23;22.53;;;9.43;;
11346;SDS011;5728;42.722;23.258;2023-04-24T04:14:51;14.93;;;8.27;;
11346;SDS011;5728;42.722;23.258;2023-04-24T04:17:18;18.30;;;9.50;;
11346;SDS011;5728;42.722;23.258;2023-04-24T04:19:45;20.60;;;8.90;;
11346;SDS011;5728;42.722;23.258;2023-04-24T04:22:11;20.03;;;8.97;;
11346;SDS011;5728;42.722;23.258;2023-04-24T04:24:38;21.47;;;10.27;;
11346;SDS011;5728;42.722;23.258;2023-04-24T04:27:05;14.50;;;8.53;;
11346;SDS011;5728;42.722;23.258;2023-04-24T04:29:33;17.70;;;8.37;;
11346;SDS011;5728;42.722;23.258;2023-04-24T04:32:02;13.13;;;8.87;;
11346;SDS011;5728;42.722;23.258;2023-04-24T04:34:29;21.90;;;9.90;;
11346;SDS011;5728;42.722;23.258;2023-04-24T04:36:56;21.10;;;8.17;;
11346;SDS011;5728;42.722;23.258;2023-04-24T04:39:26;13.23;;;8.43;;
11346;SDS011;5728;42.722;23.258;2023-04-24T04:41:53;23.60;;;8.30;;
11346;SDS011;5728;42.722;23.258;2023-04-24T04:44:20;24.60;;;9.47;;
11346;SDS011;5728;42.722;23.258;2023-04-24T04:46:47;22.80;;;8.90;;
11346;SDS011;5728;42.722;23.258;2023-04-24T04:49:15;19.23;;;7.77;;
11346;SDS011;5728;42.722;23.258;2023-04-24T04:51:43;22.17;;;8.87;;
11346;SDS011;5728;42.722;23.258;2023-04-24T04:54:10;23.97;;;7.83;;
11346;SDS011;5728;42.722;23.258;2023-04-24T04:56:37;14.10;;;8.40;;
11346;SDS011;5728;42.722;23.258;2023-04-24T04:59:04;21.73;;;9.03;;
11346;SDS011;5728;42.722;23.258;2023-04-24T05:01:31;18.53;;;8.17;;
11346;SDS011;5728;42.722;23.258;2023-04-24T05:03:58;14.33;;;7.57;;
11346;SDS011;5728;42.722;23.258;2023-04-24T05:06:26;15.37;;;7.37;;
11346;SDS011;5728;42.722;23.258;2023-04-24T05:08:53;14.43;;;7.90;;
11346;SDS011;5728;42.722;23.258;2023-04-24T05:11:22;20.13;;;6.53;;
11346;SDS011;5728;42.722;23.258;2023-04-24T05:13:49;14.77;;;7.50;;
11346;SDS011;5728;42.722;23.258;2023-04-24T05:16:15;11.47;;;7.07;;
11346;SDS011;5728;42.722;23.258;2023-04-24T05:18:42;12.07;;;6.90;;
11346;SDS011;5728;42.722;23.258;2023-04-24T05:21:09;16.37;;;6.90;;
11346;SDS011;5728;42.722;23.258;2023-04-24T05:23:37;15.10;;;9.50;;
11346;SDS011;5728;42.722;23.258;2023-04-24T05:26:04;13.73;;;7.00;;
11346;SDS011;5728;42.722;23.258;2023-04-24T05:28:31;34.37;;;9.20;;
11346;SDS011;5728;42.722;23.258;2023-04-24T05:30:58;15.63;;;7.63;;
11346;SDS011;5728;42.722;23.258;2023-04-24T05:33:26;16.90;;;7.33;;
11346;SDS011;5728;42.722;23.258;2023-04-24T05:35:52;13.43;;;7.67;;
11346;SDS011;5728;42.722;23.258;2023-04-24T05:38:19;11.13;;;6.27;;
11346;SDS011;5728;42.722;23.258;2023-04-24T05:40:47;13.03;;;7.27;;
11346;SDS011;5728;42.722;23.258;2023-04-24T05:43:14;8.40;;;5.93;;
11346;SDS011;5728;42.722;23.258;2023-04-24T05:45:40;13.13;;;6.67;;
11346;SDS011;5728;42.722;23.258;2023-04-24T05:48:07;11.90;;;7.27;;
11346;SDS011;5728;42.722;23.258;2023-04-24T05:50:34;20.70;;;7.30;;
11346;SDS011;5728;42.722;23.258;2023-04-24T05:53:01;13.13;;;6.97;;
11346;SDS011;5728;42.722;23.258;2023-04-24T05:55:30;8.50;;;6.13;;
11346;SDS011;5728;42.722;23.258;2023-04-24T05:57:58;17.63;;;7.33;;
11346;SDS011;5728;42.722;23.258;2023-04-24T06:00:25;18.27;;;7.03;;
11346;SDS011;5728;42.722;23.258;2023-04-24T06:02:53;13.93;;;6.40;;
11346;SDS011;5728;42.722;23.258;2023-04-24T06:05:20;20.83;;;7.23;;
11346;SDS011;5728;42.722;23.258;2023-04-24T06:07:47;11.97;;;6.77;;
11346;SDS011;5728;42.722;23.258;2023-04-24T06:10:14;10.90;;;6.23;;
11346;SDS011;5728;42.722;23.258;2023-04-24T06:12:41;8.17;;;5.50;;
11346;SDS011;5728;42.722;23.258;2023-04-24T06:15:09;11.13;;;5.57;;
11346;SDS011;5728;42.722;23.258;2023-04-24T06:17:36;9.33;;;6.63;;
11346;SDS011;5728;42.722;23.258;2023-04-24T06:20:03;11.68;;;5.72;;
11346;SDS011;5728;42.722;23.258;2023-04-24T06:22:31;17.08;;;6.70;;
11346;SDS011;5728;42.722;23.258;2023-04-24T06:24:59;10.30;;;6.03;;
11346;SDS011;5728;42.722;23.258;2023-04-24T06:27:25;11.60;;;6.72;;
11346;SDS011;5728;42.722;23.258;2023-04-24T06:29:52;7.10;;;6.40;;
11346;SDS011;5728;42.722;23.258;2023-04-24T06:32:22;9.73;;;6.45;;
11346;SDS011;5728;42.722;23.258;2023-04-24T06:34:50;16.65;;;7.05;;
11346;SDS011;5728;42.722;23.258;2023-04-24T06:37:17;12.30;;;6.55;;
11346;SDS011;5728;42.722;23.258;2023-04-24T06:39:44;10.18;;;7.20;;
11346;SDS011;5728;42.722;23.258;2023-04-24T06:42:11;15.25;;;7.03;;
11346;SDS011;5728;42.722;23.258;2023-04-24T06:44:38;10.32;;;6.63;;
11346;SDS011;5728;42.722;23.258;2023-04-24T06:47:06;12.02;;;6.95;;
11346;SDS011;5728;42.722;23.258;2023-04-24T06:49:39;14.65;;;6.68;;
11346;SDS011;5728;42.722;23.258;2023-04-24T06:52:06;11.70;;;6.95;;
11346;SDS011;5728;42.722;23.258;2023-04-24T06:54:32;7.43;;;6.28;;
11346;SDS011;5728;42.722;23.258;2023-04-24T06:56:59;13.82;;;6.93;;
11346;SDS011;5728;42.722;23.258;2023-04-24T06:59:27;11.65;;;7.00;;
11346;SDS011;5728;42.722;23.258;2023-04-24T07:01:54;11.43;;;7.32;;
11346;SDS011;5728;42.722;23.258;2023-04-24T07:04:21;10.82;;;6.45;;
11346;SDS011;5728;42.722;23.258;2023-04-24T07:06:51;13.75;;;6.72;;
11346;SDS011;5728;42.722;23.258;2023-04-24T07:09:19;9.77;;;6.07;;
11346;SDS011;5728;42.722;23.258;2023-04-24T07:11:47;13.48;;;7.82;;
11346;SDS011;5728;42.722;23.258;2023-04-24T07:14:14;13.68;;;6.72;;
11346;SDS011;5728;42.722;23.258;2023-04-24T07:16:41;10.70;;;8.07;;
11346;SDS011;5728;42.722;23.258;2023-04-24T07:19:08;19.77;;;11.50;;
11346;SDS011;5728;42.722;23.258;2023-04-24T07:21:35;16.30;;;11.13;;
11346;SDS011;5728;42.722;23.258;2023-04-24T07:24:03;15.35;;;8.82;;
11346;SDS011;5728;42.722;23.258;2023-04-24T07:26:30;15.50;;;7.20;;
11346;SDS011;5728;42.722;23.258;2023-04-24T07:28:57;11.98;;;7.18;;
11346;SDS011;5728;42.722;23.258;2023-04-24T07:31:24;16.95;;;6.78;;
11346;SDS011;5728;42.722;23.258;2023-04-24T07:33:50;15.45;;;7.22;;
11346;SDS011;5728;42.722;23.258;2023-04-24T07:36:17;9.77;;;7.43;;
11346;SDS011;5728;42.722;23.258;2023-04-24T07:38:45;10.30;;;6.75;;
11346;SDS011;5728;42.722;23.258;2023-04-24T07:41:13;11.80;;;6.57;;
11346;SDS011;5728;42.722;23.258;2023-04-24T07:43:40;10.20;;;6.63;;
11346;SDS011;5728;42.722;23.258;2023-04-24T07:46:07;10.93;;;6.93;;
11346;SDS011;5728;42.722;23.258;2023-04-24T07:48:34;9.50;;;6.57;;
11346;SDS011;5728;42.722;23.258;2023-04-24T07:51:01;11.63;;;7.20;;
11346;SDS011;5728;42.722;23.258;2023-04-24T07:53:27;14.02;;;6.10;;
11346;SDS011;5728;42.722;23.258;2023-04-24T07:55:54;8.45;;;5.97;;
11346;SDS011;5728;42.722;23.258;2023-04-24T07:58:24;15.20;;;6.75;;
11346;SDS011;5728;42.722;23.258;2023-04-24T08:00:50;13.40;;;6.38;;
11346;SDS011;5728;42.722;23.258;2023-04-24T08:03:17;6.75;;;5.70;;
11346;SDS011;5728;42.722;23.258;2023-04-24T08:05:45;7.50;;;5.50;;
11346;SDS011;5728;42.722;23.258;2023-04-24T08:08:12;7.63;;;5.63;;
11346;SDS011;5728;42.722;23.258;2023-04-24T08:10:39;9.68;;;5.35;;
11346;SDS011;5728;42.722;23.258;2023-04-24T08:13:05;11.77;;;6.38;;
11346;SDS011;5728;42.722;23.258;2023-04-24T08:15:34;9.02;;;5.97;;
11346;SDS011;5728;42.722;23.258;2023-04-24T08:18:01;15.23;;;6.07;;
11346;SDS011;5728;42.722;23.258;2023-04-24T08:20:28;6.75;;;5.80;;
11346;SDS011;5728;42.722;23.258;2023-04-24T08:22:55;10.55;;;5.93;;
11346;SDS011;5728;42.722;23.258;2023-04-24T08:25:22;9.35;;;6.05;;
11346;SDS011;5728;42.722;23.258;2023-04-24T08:27:49;8.13;;;5.07;;
11346;SDS011;5728;42.722;23.258;2023-04-24T08:30:16;17.17;;;6.25;;
11346;SDS011;5728;42.722;23.258;2023-04-24T08:32:44;11.02;;;5.97;;
11346;SDS011;5728;42.722;23.258;2023-04-24T08:35:11;9.85;;;6.05;;
11346;SDS011;5728;42.722;23.258;2023-04-24T08:37:38;9.25;;;5.25;;
11346;SDS011;5728;42.722;23.258;2023-04-24T08:40:06;9.75;;;5.30;;
11346;SDS011;5728;42.722;23.258;2023-04-24T08:42:41;10.90;;;5.50;;
11346;SDS011;5728;42.722;23.258;2023-04-24T08:45:09;16.08;;;6.80;;
11346;SDS011;5728;42.722;23.258;2023-04-24T08:47:37;6.45;;;4.93;;
11346;SDS011;5728;42.722;23.258;2023-04-24T08:50:07;8.23;;;5.55;;
11346;SDS011;5728;42.722;23.258;2023-04-24T08:52:34;8.55;;;5.40;;
11346;SDS011;5728;42.722;23.258;2023-04-24T08:55:01;7.03;;;5.88;;
11346;SDS011;5728;42.722;23.258;2023-04-24T08:57:28;11.20;;;5.05;;
11346;SDS011;5728;42.722;23.258;2023-04-24T08:59:57;9.60;;;6.88;;
11346;SDS011;5728;42.722;23.258;2023-04-24T09:02:25;12.00;;;5.30;;
11346;SDS011;5728;42.722;23.258;2023-04-24T09:04:52;12.32;;;6.60;;
11346;SDS011;5728;42.722;23.258;2023-04-24T09:07:21;10.40;;;5.80;;
11346;SDS011;5728;42.722;23.258;2023-04-24T09:09:50;8.15;;;5.70;;
11346;SDS011;5728;42.722;23.258;2023-04-24T09:12:18;13.27;;;6.05;;
11346;SDS011;5728;42.722;23.258;2023-04-24T09:14:45;6.80;;;5.47;;
11346;SDS011;5728;42.722;23.258;2023-04-24T09:17:12;14.73;;;5.40;;
11346;SDS011;5728;42.722;23.258;2023-04-24T09:19:39;8.23;;;5.25;;
11346;SDS011;5728;42.722;23.258;2023-04-24T09:22:06;8.93;;;4.97;;
11346;SDS011;5728;42.722;23.258;2023-04-24T09:24:35;9.60;;;4.95;;
11346;SDS011;5728;42.722;23.258;2023-04-24T09:27:01;8.23;;;5.05;;
11346;SDS011;5728;42.722;23.258;2023-04-24T09:29:29;11.93;;;5.57;;
11346;SDS011;5728;42.722;23.258;2023-04-24T09:31:56;12.93;;;5.03;;
11346;SDS011;5728;42.722;23.258;2023-04-24T09:34:24;14.95;;;5.93;;
11346;SDS011;5728;42.722;23.258;2023-04-24T09:36:52;8.07;;;5.47;;
11346;SDS011;5728;42.722;23.258;2023-04-24T09:39:19;8.93;;;5.50;;
11346;SDS011;5728;42.722;23.258;2023-04-24T09:41:48;7.35;;;5.32;;
11346;SDS011;5728;42.722;23.258;2023-04-24T09:44:16;8.50;;;5.43;;
11346;SDS011;5728;42.722;23.258;2023-04-24T09:46:45;8.90;;;5.35;;
11346;SDS011;5728;42.722;23.258;2023-04-24T09:49:16;8.07;;;5.22;;
11346;SDS011;5728;42.722;23.258;2023-04-24T09:51:47;15.60;;;4.95;;
11346;SDS011;5728;42.722;23.258;2023-04-24T09:54:15;9.70;;;5.00;;
11346;SDS011;5728;42.722;23.258;2023-04-24T09:56:43;10.80;;;5.45;;
11346;SDS011;5728;42.722;23.258;2023-04-24T09:59:13;11.65;;;5.05;;
11346;SDS011;5728;42.722;23.258;2023-04-24T10:01:40;8.27;;;5.25;;
11346;SDS011;5728;42.722;23.258;2023-04-24T10:04:15;9.35;;;4.75;;
11346;SDS011;5728;42.722;23.258;2023-04-24T10:06:43;8.40;;;4.75;;
11346;SDS011;5728;42.722;23.258;2023-04-24T10:09:10;6.38;;;4.68;;
11346;SDS011;5728;42.722;23.258;2023-04-24T10:11:40;6.90;;;4.45;;
11346;SDS011;5728;42.722;23.258;2023-04-24T10:14:09;6.50;;;4.97;;
11346;SDS011;5728;42.722;23.258;2023-04-24T10:16:39;6.03;;;4.40;;
11346;SDS011;5728;42.722;23.258;2023-04-24T10:19:06;7.50;;;5.25;;
11346;SDS011;5728;42.722;23.258;2023-04-24T10:21:34;9.00;;;4.68;;
11346;SDS011;5728;42.722;23.258;2023-04-24T10:24:02;7.68;;;5.10;;
11346;SDS011;5728;42.722;23.258;2023-04-24T10:26:32;6.18;;;4.05;;
11346;SDS011;5728;42.722;23.258;2023-04-24T10:29:00;7.47;;;4.40;;
11346;SDS011;5728;42.722;23.258;2023-04-24T10:31:27;9.77;;;4.78;;
11346;SDS011;5728;42.722;23.258;2023-04-24T10:33:59;7.30;;;4.53;;
11346;SDS011;5728;42.722;23.258;2023-04-24T10:36:27;7.53;;;4.68;;
11346;SDS011;5728;42.722;23.258;2023-04-24T10:38:57;7.10;;;4.55;;
11346;SDS011;5728;42.722;23.258;2023-04-24T10:41:26;9.50;;;4.97;;
11346;SDS011;5728;42.722;23.258;2023-04-24T10:46:36;8.15;;;4.50;;
11346;SDS011;5728;42.722;23.258;2023-04-24T10:49:05;8.15;;;4.18;;
11346;SDS011;5728;42.722;23.258;2023-04-24T10:51:45;11.35;;;4.13;;
11346;SDS011;5728;42.722;23.258;2023-04-24T10:54:23;13.05;;;4.65;;
11346;SDS011;5728;42.722;23.258;2023-04-24T10:56:50;9.20;;;4.03;;
11346;SDS011;5728;42.722;23.258;2023-04-24T10:59:24;4.60;;;3.80;;
11346;SDS011;5728;42.722;23.258;2023-04-24T11:01:52;8.40;;;3.88;;
11346;SDS011;5728;42.722;23.258;2023-04-24T11:04:30;8.20;;;3.63;;
11346;SDS011;5728;42.722;23.258;2023-04-24T11:06:58;9.65;;;4.28;;
11346;SDS011;5728;42.722;23.258;2023-04-24T11:09:26;6.50;;;4.10;;
11346;SDS011;5728;42.722;23.258;2023-04-24T11:12:02;6.55;;;3.75;;
11346;SDS011;5728;42.722;23.258;2023-04-24T11:14:31;7.72;;;4.25;;
11346;SDS011;5728;42.722;23.258;2023-04-24T11:17:29;3.13;;;2.70;;
11346;SDS011;5728;42.722;23.258;2023-04-24T11:20:00;15.55;;;4.35;;
11346;SDS011;5728;42.722;23.258;2023-04-24T11:22:28;4.20;;;3.30;;
11346;SDS011;5728;42.722;23.258;2023-04-24T11:24:59;5.70;;;3.38;;
11346;SDS011;5728;42.722;23.258;2023-04-24T11:27:29;5.70;;;3.65;;
11346;SDS011;5728;42.722;23.258;2023-04-24T11:29:59;4.28;;;3.83;;
11346;SDS011;5728;42.722;23.258;2023-04-24T11:32:28;4.70;;;3.90;;
11346;SDS011;5728;42.722;23.258;2023-04-24T11:34:56;4.07;;;3.67;;
11346;SDS011;5728;42.722;23.258;2023-04-24T11:37:28;10.98;;;4.90;;
11346;SDS011;5728;42.722;23.258;2023-04-24T11:39:57;4.28;;;3.63;;
11346;SDS011;5728;42.722;23.258;2023-04-24T11:42:24;4.53;;;3.25;;
11346;SDS011;5728;42.722;23.258;2023-04-24T11:44:52;5.28;;;3.42;;
11346;SDS011;5728;42.722;23.258;2023-04-24T11:47:20;8.02;;;3.83;;
11346;SDS011;5728;42.722;23.258;2023-04-24T11:49:59;5.50;;;3.90;;
11346;SDS011;5728;42.722;23.258;2023-04-24T11:52:27;5.80;;;4.40;;
11346;SDS011;5728;42.722;23.258;2023-04-24T11:54:55;8.05;;;4.22;;
11346;SDS011;5728;42.722;23.258;2023-04-24T11:57:23;6.68;;;3.83;;
11346;SDS011;5728;42.722;23.258;2023-04-24T11:59:52;4.22;;;3.58;;
11346;SDS011;5728;42.722;23.258;2023-04-24T12:02:21;7.38;;;3.85;;
11346;SDS011;5728;42.722;23.258;2023-04-24T12:04:50;4.93;;;3.63;;
11346;SDS011;5728;42.722;23.258;2023-04-24T12:07:17;7.68;;;4.15;;
11346;SDS011;5728;42.722;23.258;2023-04-24T12:09:44;7.47;;;3.72;;
11346;SDS011;5728;42.722;23.258;2023-04-24T12:12:12;4.05;;;3.75;;
11346;SDS011;5728;42.722;23.258;2023-04-24T12:14:43;8.57;;;4.00;;
11346;SDS011;5728;42.722;23.258;2023-04-24T12:17:10;5.43;;;3.85;;
11346;SDS011;5728;42.722;23.258;2023-04-24T12:19:37;5.85;;;3.92;;
11346;SDS011;5728;42.722;23.258;2023-04-24T12:22:12;6.90;;;4.88;;
11346;SDS011;5728;42.722;23.258;2023-04-24T12:27:29;7.05;;;3.90;;
11346;SDS011;5728;42.722;23.258;2023-04-24T12:29:57;6.82;;;4.75;;
11346;SDS011;5728;42.722;23.258;2023-04-24T12:32:25;7.10;;;5.00;;
11346;SDS011;5728;42.722;23.258;2023-04-24T12:34:52;5.38;;;3.70;;
11346;SDS011;5728;42.722;23.258;2023-04-24T12:37:21;8.93;;;3.90;;
11346;SDS011;5728;42.722;23.258;2023-04-24T12:39:59;5.55;;;3.33;;
11346;SDS011;5728;42.722;23.258;2023-04-24T12:42:32;7.38;;;3.25;;
11346;SDS011;5728;42.722;23.258;2023-04-24T12:45:01;4.80;;;4.30;;
11346;SDS011;5728;42.722;23.258;2023-04-24T12:47:29;4.10;;;3.38;;
11346;SDS011;5728;42.722;23.258;2023-04-24T12:49:57;6.95;;;4.13;;
11346;SDS011;5728;42.722;23.258;2023-04-24T12:52:26;6.97;;;4.57;;
11346;SDS011;5728;42.722;23.258;2023-04-24T12:54:54;10.57;;;5.35;;
11346;SDS011;5728;42.722;23.258;2023-04-24T12:57:22;6.45;;;3.90;;
11346;SDS011;5728;42.722;23.258;2023-04-24T12:59:48;4.53;;;3.72;;
11346;SDS011;5728;42.722;23.258;2023-04-24T13:02:15;3.75;;;3.38;;
11346;SDS011;5728;42.722;23.258;2023-04-24T13:04:43;4.05;;;3.65;;
11346;SDS011;5728;42.722;23.258;2023-04-24T13:07:11;5.72;;;3.67;;
11346;SDS011;5728;42.722;23.258;2023-04-24T13:09:40;3.92;;;3.53;;
11346;SDS011;5728;42.722;23.258;2023-04-24T13:12:07;6.80;;;3.78;;
11346;SDS011;5728;42.722;23.258;2023-04-24T13:14:34;8.13;;;4.03;;
11346;SDS011;5728;42.722;23.258;2023-04-24T13:17:01;8.00;;;3.53;;
11346;SDS011;5728;42.722;23.258;2023-04-24T13:19:28;3.80;;;3.40;;
11346;SDS011;5728;42.722;23.258;2023-04-24T13:21:56;4.47;;;3.38;;
11346;SDS011;5728;42.722;23.258;2023-04-24T13:24:24;5.82;;;2.97;;
11346;SDS011;5728;42.722;23.258;2023-04-24T13:26:52;4.55;;;3.25;;
11346;SDS011;5728;42.722;23.258;2023-04-24T13:29:19;3.55;;;3.10;;
11346;SDS011;5728;42.722;23.258;2023-04-24T13:31:46;3.85;;;3.40;;
11346;SDS011;5728;42.722;23.258;2023-04-24T13:34:14;4.93;;;3.10;;
11346;SDS011;5728;42.722;23.258;2023-04-24T13:36:40;6.13;;;3.47;;
11346;SDS011;5728;42.722;23.258;2023-04-24T13:39:07;5.05;;;3.15;;
11346;SDS011;5728;42.722;23.258;2023-04-24T13:41:34;11.13;;;2.75;;
11346;SDS011;5728;42.722;23.258;2023-04-24T13:44:02;4.00;;;3.63;;
11346;SDS011;5728;42.722;23.258;2023-04-24T13:46:30;7.65;;;3.47;;
11346;SDS011;5728;42.722;23.258;2023-04-24T13:48:57;3.50;;;3.20;;
11346;SDS011;5728;42.722;23.258;2023-04-24T13:51:25;7.43;;;3.40;;
11346;SDS011;5728;42.722;23.258;2023-04-24T13:53:52;6.15;;;2.90;;
11346;SDS011;5728;42.722;23.258;2023-04-24T13:56:20;5.10;;;3.00;;
11346;SDS011;5728;42.722;23.258;2023-04-24T13:58:47;10.13;;;3.42;;
11346;SDS011;5728;42.722;23.258;2023-04-24T14:01:16;5.03;;;3.25;;
11346;SDS011;5728;42.722;23.258;2023-04-24T14:03:42;3.55;;;3.10;;
11346;SDS011;5728;42.722;23.258;2023-04-24T14:06:09;5.82;;;4.03;;
11346;SDS011;5728;42.722;23.258;2023-04-24T14:08:36;4.38;;;3.15;;
11346;SDS011;5728;42.722;23.258;2023-04-24T14:11:03;5.82;;;3.20;;
11346;SDS011;5728;42.722;23.258;2023-04-24T14:13:30;5.15;;;2.95;;
11346;SDS011;5728;42.722;23.258;2023-04-24T14:15:57;7.70;;;3.33;;
11346;SDS011;5728;42.722;23.258;2023-04-24T14:18:26;5.07;;;2.95;;
11346;SDS011;5728;42.722;23.258;2023-04-24T14:20:53;4.65;;;2.85;;
11346;SDS011;5728;42.722;23.258;2023-04-24T14:23:20;3.47;;;2.85;;
11346;SDS011;5728;42.722;23.258;2023-04-24T14:25:47;4.65;;;3.30;;
11346;SDS011;5728;42.722;23.258;2023-04-24T14:28:16;3.63;;;2.60;;
11346;SDS011;5728;42.722;23.258;2023-04-24T14:30:44;4.40;;;2.83;;
11346;SDS011;5728;42.722;23.258;2023-04-24T14:33:11;9.13;;;2.67;;
11346;SDS011;5728;42.722;23.258;2023-04-24T14:35:39;7.85;;;3.60;;
11346;SDS011;5728;42.722;23.258;2023-04-24T14:38:07;5.13;;;2.72;;
11346;SDS011;5728;42.722;23.258;2023-04-24T14:40:34;3.30;;;3.00;;
11346;SDS011;5728;42.722;23.258;2023-04-24T14:43:01;6.60;;;3.30;;
11346;SDS011;5728;42.722;23.258;2023-04-24T14:45:28;8.82;;;3.60;;
11346;SDS011;5728;42.722;23.258;2023-04-24T14:47:55;8.13;;;2.85;;
11346;SDS011;5728;42.722;23.258;2023-04-24T14:50:22;7.38;;;3.92;;